Time;durP1;ratioP1;P1;durP2;ratioP2;P2;SDS_P1;SDS_P2;PMS_P1;PMS_P2;Temp;Humidity;BMP_temperature;BMP_pressure;BME280_temperature;BME280_humidity;BME280_pressure;Samples;Min_cycle;Max_cycle;Signal;HPM_P1;HPM_P2
2022/10/15 00:01:24;;;;;;;53.17;35.90;;;;;;;12.17;100.00;100753.91;5007161;28;20057;-86
2022/10/15 00:03:50;;;;;;;38.97;31.30;;;;;;;12.16;100.00;100755.69;5045535;28;20039;-85
2022/10/15 00:06:19;;;;;;;46.95;35.63;;;;;;;12.17;100.00;100751.28;5045417;28;20407;-86
2022/10/15 00:08:45;;;;;;;47.33;35.63;;;;;;;12.20;100.00;100743.97;5042649;28;20033;-86
2022/10/15 00:11:17;;;;;;;45.47;33.28;;;;;;;12.16;100.00;100737.41;5042956;28;20519;-86
2022/10/15 00:13:43;;;;;;;46.60;35.63;;;;;;;12.14;100.00;100739.34;5041455;28;20028;-84
2022/10/15 00:16:12;;;;;;;48.28;34.88;;;;;;;12.11;100.00;100733.59;5041071;28;20049;-85
2022/10/15 00:18:37;;;;;;;50.15;34.97;;;;;;;12.10;100.00;100738.00;5041976;28;20025;-88
2022/10/15 00:21:08;;;;;;;49.85;36.08;;;;;;;12.02;100.00;100737.06;5026536;28;20450;-86
2022/10/15 00:23:34;;;;;;;49.47;34.63;;;;;;;11.98;100.00;100730.50;5041330;28;20052;-87
2022/10/15 00:26:04;;;;;;;47.35;35.50;;;;;;;11.94;100.00;100727.38;5046482;28;20468;-87
2022/10/15 00:28:30;;;;;;;50.17;36.30;;;;;;;11.89;100.00;100719.16;5042344;28;20041;-86
2022/10/15 00:31:00;;;;;;;49.22;35.83;;;;;;;11.85;100.00;100712.56;5041147;28;20040;-85
2022/10/15 00:33:25;;;;;;;47.38;35.65;;;;;;;11.81;100.00;100719.09;5042996;28;20060;-86
2022/10/15 00:36:18;;;;;;;46.90;34.95;;;;;;;11.83;100.00;100730.16;5044078;28;20580;-85
2022/10/15 00:38:44;;;;;;;57.92;36.42;;;;;;;11.93;100.00;100725.72;5025062;28;20111;-86
2022/10/15 00:41:19;;;;;;;48.40;35.63;;;;;;;11.94;100.00;100724.75;5044728;28;20484;-86
2022/10/15 00:43:46;;;;;;;46.38;35.00;;;;;;;11.95;100.00;100726.41;5040679;28;20040;-86
2022/10/15 00:46:19;;;;;;;47.03;35.45;;;;;;;11.94;100.00;100730.78;5045376;28;20139;-86
2022/10/15 00:48:47;;;;;;;50.65;37.60;;;;;;;12.05;100.00;100724.56;5070684;28;20020;-85
2022/10/15 00:51:14;;;;;;;50.03;37.55;;;;;;;12.32;100.00;100715.81;5051905;28;20098;-86
2022/10/15 00:53:39;;;;;;;52.08;36.17;;;;;;;12.51;100.00;100709.63;5045997;28;20465;-85
2022/10/15 00:56:05;;;;;;;51.75;37.47;;;;;;;12.59;100.00;100705.28;5047428;28;20131;-84
2022/10/15 00:58:33;;;;;;;50.85;37.47;;;;;;;12.74;100.00;100705.56;5045286;28;20037;-85
2022/10/15 01:00:59;;;;;;;48.92;36.65;;;;;;;12.86;100.00;100691.25;5045743;28;20481;-86
2022/10/15 01:03:25;;;;;;;53.90;36.47;;;;;;;12.90;100.00;100678.69;5044817;28;20029;-84
2022/10/15 01:05:52;;;;;;;46.65;34.92;;;;;;;13.01;100.00;100680.22;5044659;28;20106;-85
2022/10/15 01:08:17;;;;;;;48.08;35.13;;;;;;;13.03;100.00;100673.88;5026503;28;20520;-86
2022/10/15 01:11:04;;;;;;;45.50;34.28;;;;;;;13.08;100.00;100676.00;5046831;28;20108;-85
2022/10/15 01:13:56;;;;;;;48.88;35.90;;;;;;;13.00;100.00;100665.50;5045585;28;20037;-86
2022/10/15 01:16:38;;;;;;;46.70;33.70;;;;;;;12.82;100.00;100666.38;5047812;28;20289;-85
2022/10/15 01:19:27;;;;;;;46.55;35.60;;;;;;;12.65;100.00;100659.41;5033770;28;20044;-84
2022/10/15 01:22:21;;;;;;;42.78;33.88;;;;;;;12.54;100.00;100665.72;5049335;28;20037;-85
2022/10/15 01:25:07;;;;;;;57.65;36.28;;;;;;;12.43;100.00;100660.72;5003680;28;20566;-85
2022/10/15 01:27:37;;;;;;;47.17;35.08;;;;;;;12.26;100.00;100651.94;5046915;28;20056;-85
2022/10/15 01:30:19;;;;;;;45.00;35.88;;;;;;;12.11;100.00;100650.84;5048753;28;20119;-86
2022/10/15 01:33:07;;;;;;;49.83;33.90;;;;;;;12.12;100.00;100649.88;5045987;28;20028;-84
2022/10/15 01:35:47;;;;;;;48.90;35.63;;;;;;;12.14;100.00;100650.53;4974449;28;20057;-85
2022/10/15 01:38:15;;;;;;;45.92;35.42;;;;;;;12.09;100.00;100652.78;4996516;28;20121;-85
2022/10/15 01:40:48;;;;;;;43.72;34.08;;;;;;;12.04;100.00;100655.00;4985345;28;20554;-86
2022/10/15 01:43:26;;;;;;;43.67;34.10;;;;;;;12.03;100.00;100648.16;4973514;28;20058;-85
2022/10/15 01:46:00;;;;;;;47.05;35.17;;;;;;;11.99;100.00;100646.81;5002555;28;20034;-85
2022/10/15 01:48:28;;;;;;;46.03;35.22;;;;;;;11.98;100.00;100639.13;4981582;28;20053;-86
2022/10/15 01:50:59;;;;;;;44.65;34.17;;;;;;;12.05;100.00;100645.38;4992305;28;20037;-86
2022/10/15 01:53:26;;;;;;;48.28;35.03;;;;;;;12.04;100.00;100634.13;4986773;28;20050;-86
2022/10/15 01:56:14;;;;;;;45.90;35.28;;;;;;;12.02;100.00;100636.06;4975807;28;20039;-84
2022/10/15 01:58:42;;;;;;;44.45;34.67;;;;;;;12.01;100.00;100637.03;4988824;28;20159;-85
2022/10/15 02:01:08;;;;;;;43.58;34.33;;;;;;;12.01;100.00;100641.44;4995823;28;20552;-86
2022/10/15 02:03:48;;;;;;;46.00;35.05;;;;;;;11.98;100.00;100639.94;4984956;28;20125;-87
2022/10/15 02:06:30;;;;;;;47.60;36.00;;;;;;;11.99;100.00;100643.38;4988764;28;20555;-85
2022/10/15 02:09:04;;;;;;;44.53;33.53;;;;;;;12.00;100.00;100638.00;4990214;28;20121;-87
2022/10/15 02:11:47;;;;;;;42.95;33.17;;;;;;;12.03;100.00;100634.25;5009572;28;20120;-86
2022/10/15 02:14:26;;;;;;;42.15;32.28;;;;;;;12.06;100.00;100640.00;5047038;28;20047;-86
2022/10/15 02:17:00;;;;;;;42.90;32.55;;;;;;;12.12;100.00;100625.53;5049367;28;20171;-85
2022/10/15 02:19:40;;;;;;;45.13;34.45;;;;;;;12.29;100.00;100635.13;5049027;28;20048;-85
2022/10/15 02:22:13;;;;;;;43.70;34.25;;;;;;;12.54;100.00;100625.69;5048242;28;20448;-84
2022/10/15 02:24:57;;;;;;;43.65;32.45;;;;;;;12.56;100.00;100627.19;5029969;28;20123;-86
2022/10/15 02:27:25;;;;;;;46.47;34.05;;;;;;;12.49;100.00;100622.72;5043492;28;20029;-86
2022/10/15 02:29:52;;;;;;;43.22;34.03;;;;;;;12.59;100.00;100619.03;5046894;28;20043;-85
2022/10/15 02:32:20;;;;;;;41.35;32.78;;;;;;;12.76;100.00;100617.31;5048295;28;20379;-85
2022/10/15 02:34:47;;;;;;;40.75;31.88;;;;;;;12.92;100.00;100614.78;5046069;28;20111;-84
2022/10/15 02:37:14;;;;;;;41.85;32.35;;;;;;;13.21;100.00;100608.44;5047562;28;20029;-85
2022/10/15 02:39:39;;;;;;;40.08;31.50;;;;;;;13.38;100.00;100604.88;5045912;28;20119;-85
2022/10/15 02:42:05;;;;;;;43.00;32.95;;;;;;;13.41;100.00;100608.97;5049137;28;20128;-85
2022/10/15 02:44:31;;;;;;;40.88;31.67;;;;;;;13.38;100.00;100610.09;5045399;28;20048;-86
2022/10/15 02:46:58;;;;;;;40.95;32.17;;;;;;;13.32;100.00;100602.06;5032043;28;20025;-84
2022/10/15 02:49:23;;;;;;;39.30;30.83;;;;;;;13.32;100.00;100600.25;5042130;28;20025;-85
2022/10/15 02:51:49;;;;;;;42.17;32.70;;;;;;;13.28;100.00;100607.59;5046254;28;20483;-85
2022/10/15 02:54:14;;;;;;;39.60;31.77;;;;;;;13.22;100.00;100615.28;5045915;28;20370;-84
2022/10/15 02:56:40;;;;;;;39.97;32.65;;;;;;;13.10;100.00;100619.13;5046429;28;21560;-85
2022/10/15 02:59:06;;;;;;;38.83;31.33;;;;;;;12.98;100.00;100620.38;5043148;28;20082;-85
2022/10/15 03:01:32;;;;;;;37.90;30.48;;;;;;;13.17;100.00;100622.78;5044951;28;20020;-85
2022/10/15 03:03:57;;;;;;;40.17;31.33;;;;;;;13.24;100.00;100629.00;5046399;28;20029;-87
2022/10/15 03:06:23;;;;;;;42.00;31.50;;;;;;;13.32;100.00;100625.59;5046933;28;20044;-86
2022/10/15 03:08:48;;;;;;;45.58;30.75;;;;;;;13.29;100.00;100631.97;5048331;28;20044;-84
2022/10/15 03:11:14;;;;;;;41.72;33.30;;;;;;;13.26;100.00;100634.91;5068198;28;20017;-85
2022/10/15 03:13:40;;;;;;;41.50;32.67;;;;;;;13.22;100.00;100637.03;5064551;28;20028;-85
2022/10/15 03:16:07;;;;;;;44.90;33.17;;;;;;;13.15;100.00;100637.78;5059487;28;20029;-85
2022/10/15 03:18:33;;;;;;;43.83;33.83;;;;;;;13.14;100.00;100625.69;5044852;28;20059;-86
2022/10/15 03:20:58;;;;;;;43.75;32.88;;;;;;;13.10;100.00;100627.81;5048042;28;20541;-87
2022/10/15 03:23:24;;;;;;;47.58;35.63;;;;;;;13.07;100.00;100625.50;5027594;28;20029;-86
2022/10/15 03:25:51;;;;;;;41.25;34.03;;;;;;;13.04;100.00;100623.19;5050207;28;20535;-84
2022/10/15 03:28:17;;;;;;;45.85;34.08;;;;;;;13.09;100.00;100625.34;5045063;28;20025;-86
2022/10/15 03:30:42;;;;;;;42.75;33.83;;;;;;;13.12;100.00;100614.56;5026901;28;20036;-84
2022/10/15 03:33:08;;;;;;;45.33;32.97;;;;;;;13.22;100.00;100612.69;5045117;28;20086;-85
2022/10/15 03:35:33;;;;;;;46.05;33.58;;;;;;;13.37;100.00;100608.47;5045568;28;20017;-86
2022/10/15 03:37:59;;;;;;;46.72;33.75;;;;;;;13.47;100.00;100603.91;5047394;28;20370;-86
2022/10/15 03:40:24;;;;;;;42.35;32.60;;;;;;;13.55;100.00;100593.47;5028454;28;20487;-85
2022/10/15 03:42:50;;;;;;;45.17;33.40;;;;;;;13.59;100.00;100592.16;5042734;28;20060;-85
2022/10/15 03:45:17;;;;;;;43.97;32.10;;;;;;;13.57;100.00;100594.13;5046234;28;20071;-85
2022/10/15 03:47:43;;;;;;;42.17;33.60;;;;;;;13.55;100.00;100596.09;5045452;28;20459;-84
2022/10/15 03:50:08;;;;;;;39.22;32.22;;;;;;;13.54;100.00;100596.25;5044635;28;20020;-85
2022/10/15 03:52:36;;;;;;;38.22;31.33;;;;;;;13.52;100.00;100606.88;5045713;28;20389;-87
2022/10/15 03:55:01;;;;;;;40.95;31.15;;;;;;;13.46;100.00;100610.13;5045780;28;20108;-85
2022/10/15 03:57:26;;;;;;;41.88;33.35;;;;;;;13.39;100.00;100608.31;5045412;28;20108;-88
2022/10/15 03:59:52;;;;;;;40.58;31.17;;;;;;;13.31;100.00;100610.88;5045720;28;20033;-87
2022/10/15 04:02:17;;;;;;;41.25;33.78;;;;;;;13.24;100.00;100615.94;5043611;28;20112;-87
2022/10/15 04:04:43;;;;;;;42.03;30.90;;;;;;;13.17;100.00;100613.16;5047818;28;20135;-85
2022/10/15 04:07:08;;;;;;;43.50;30.88;;;;;;;13.23;100.00;100622.16;5027359;28;20036;-85
2022/10/15 04:09:34;;;;;;;42.35;32.67;;;;;;;13.36;100.00;100616.47;5044922;28;20025;-87
2022/10/15 04:11:59;;;;;;;40.08;31.80;;;;;;;13.40;100.00;100618.63;5046998;28;20032;-83
2022/10/15 04:14:25;;;;;;;41.17;31.25;;;;;;;13.40;100.00;100613.38;5023001;28;20473;-84
2022/10/15 04:16:50;;;;;;;44.65;32.72;;;;;;;13.38;100.00;100615.31;5028520;28;20033;-85
2022/10/15 04:19:16;;;;;;;43.67;33.08;;;;;;;13.38;100.00;100615.31;5042447;28;20035;-85
2022/10/15 04:21:42;;;;;;;46.33;34.13;;;;;;;13.36;100.00;100622.53;5043115;28;20025;-85
2022/10/15 04:24:07;;;;;;;43.88;33.65;;;;;;;13.37;100.00;100629.38;5026023;28;20476;-85
2022/10/15 04:26:33;;;;;;;46.00;35.40;;;;;;;13.33;100.00;100638.53;5029509;28;20033;-84
2022/10/15 04:28:58;;;;;;;47.92;35.58;;;;;;;13.30;100.00;100633.63;5042618;28;20209;-87
2022/10/15 04:31:24;;;;;;;45.53;34.33;;;;;;;13.29;100.00;100639.81;5025553;28;20427;-87
2022/10/15 04:33:49;;;;;;;41.88;33.47;;;;;;;13.28;100.00;100635.56;5046375;28;20036;-86
2022/10/15 04:36:15;;;;;;;42.90;33.42;;;;;;;13.28;100.00;100636.38;5041502;28;20043;-85
2022/10/15 04:38:40;;;;;;;48.10;34.33;;;;;;;13.28;100.00;100631.16;5044961;28;20047;-86
2022/10/15 04:41:09;;;;;;;43.15;33.45;;;;;;;13.30;100.00;100628.38;5028427;28;20040;-85
2022/10/15 04:43:35;;;;;;;44.13;33.83;;;;;;;13.32;100.00;100634.28;5038850;28;20048;-84
2022/10/15 04:46:03;;;;;;;43.28;34.45;;;;;;;13.32;100.00;100621.19;5042168;28;20035;-85
2022/10/15 04:48:31;;;;;;;45.55;33.78;;;;;;;13.33;100.00;100622.00;5046100;28;20040;-87
2022/10/15 04:51:04;;;;;;;39.40;32.67;;;;;;;13.36;100.00;100619.91;5024091;28;20055;-85
2022/10/15 04:53:30;;;;;;;44.90;33.10;;;;;;;13.38;100.00;100620.56;5028916;28;20033;-88
2022/10/15 04:56:02;;;;;;;43.25;33.83;;;;;;;13.37;100.00;100626.78;5041148;28;20040;-83
2022/10/15 04:58:29;;;;;;;47.53;34.70;;;;;;;13.38;100.00;100614.50;5041173;28;20031;-85
2022/10/15 05:00:54;;;;;;;46.30;34.95;;;;;;;13.44;100.00;100617.31;5043867;28;20806;-84
2022/10/15 05:03:19;;;;;;;44.58;33.95;;;;;;;13.45;100.00;100616.34;5026330;28;20040;-84
2022/10/15 05:05:45;;;;;;;49.33;34.75;;;;;;;13.47;100.00;100611.75;5046006;28;20047;-86
2022/10/15 05:08:10;;;;;;;43.13;34.10;;;;;;;13.47;100.00;100618.78;5042301;28;20029;-84
2022/10/15 05:10:36;;;;;;;43.83;33.63;;;;;;;13.45;100.00;100605.88;5043206;28;20024;-85
2022/10/15 05:13:02;;;;;;;41.80;33.33;;;;;;;13.43;100.00;100610.44;5042793;28;20041;-85
2022/10/15 05:15:28;;;;;;;45.67;33.08;;;;;;;13.43;100.00;100596.53;5042391;28;20737;-86
2022/10/15 05:17:53;;;;;;;42.92;33.58;;;;;;;13.41;100.00;100609.78;5047176;28;20040;-85
2022/10/15 05:20:19;;;;;;;41.38;32.83;;;;;;;13.43;100.00;100599.97;5021197;28;20413;-87
2022/10/15 05:22:44;;;;;;;45.72;33.65;;;;;;;13.45;100.00;100591.97;5026116;28;20025;-84
2022/10/15 05:25:09;;;;;;;46.22;33.70;;;;;;;13.46;100.00;100598.84;5043035;28;20041;-86
2022/10/15 05:27:35;;;;;;;44.63;33.90;;;;;;;13.44;100.00;100599.00;5024019;28;20036;-87
2022/10/15 05:30:00;;;;;;;46.92;32.97;;;;;;;13.43;100.00;100607.81;5043642;28;20036;-85
2022/10/15 05:32:26;;;;;;;43.83;32.78;;;;;;;13.44;100.00;100608.66;5045318;28;20056;-86
2022/10/15 05:34:51;;;;;;;50.55;35.42;;;;;;;13.43;100.00;100613.06;5067133;28;20025;-85
2022/10/15 05:37:16;;;;;;;43.65;35.70;;;;;;;13.45;100.00;100611.09;5059208;28;20033;-85
2022/10/15 05:39:42;;;;;;;44.15;34.72;;;;;;;13.42;100.00;100621.06;5048713;28;20344;-85
2022/10/15 05:42:09;;;;;;;42.65;33.03;;;;;;;13.37;100.00;100618.94;5044606;28;20049;-85
2022/10/15 05:44:34;;;;;;;42.50;32.95;;;;;;;13.38;100.00;100617.13;5043123;28;20028;-84
2022/10/15 05:47:00;;;;;;;44.65;33.97;;;;;;;13.38;100.00;100619.75;5022849;28;20152;-85
2022/10/15 05:49:25;;;;;;;44.55;32.83;;;;;;;13.41;100.00;100622.88;5044235;28;20112;-85
2022/10/15 05:51:50;;;;;;;50.67;32.45;;;;;;;13.42;100.00;100627.13;5040680;28;20033;-86
2022/10/15 05:54:16;;;;;;;42.65;32.92;;;;;;;13.42;100.00;100631.53;5043766;28;20039;-85
2022/10/15 05:56:41;;;;;;;46.05;34.70;;;;;;;13.39;100.00;100632.66;5043674;28;20406;-85
2022/10/15 05:59:07;;;;;;;47.47;35.03;;;;;;;13.38;100.00;100641.50;5024778;28;20032;-86
2022/10/15 06:01:32;;;;;;;46.40;35.17;;;;;;;13.37;100.00;100645.09;5042607;28;20037;-84
2022/10/15 06:03:57;;;;;;;46.13;35.58;;;;;;;13.37;100.00;100647.72;5043092;28;20464;-84
2022/10/15 06:06:25;;;;;;;45.75;34.25;;;;;;;13.36;100.00;100643.44;5043949;28;20036;-84
2022/10/15 06:08:52;;;;;;;49.65;34.08;;;;;;;13.35;100.00;100648.84;5046595;28;20064;-84
2022/10/15 06:11:18;;;;;;;45.30;34.33;;;;;;;13.34;100.00;100648.03;5034138;28;20320;-83
2022/10/15 06:13:45;;;;;;;47.22;33.35;;;;;;;13.34;100.00;100639.34;5030337;28;20044;-83
2022/10/15 06:16:11;;;;;;;45.92;36.33;;;;;;;13.35;100.00;100652.28;5046837;28;20523;-84
2022/10/15 06:18:38;;;;;;;43.67;33.60;;;;;;;13.36;100.00;100647.88;5029072;28;20028;-78
2022/10/15 06:21:04;;;;;;;44.17;35.30;;;;;;;13.37;100.00;100650.31;5045564;28;20036;-78
2022/10/15 06:23:30;;;;;;;45.72;33.75;;;;;;;13.41;100.00;100648.22;5043260;28;20033;-79
2022/10/15 06:25:56;;;;;;;42.67;32.38;;;;;;;13.45;100.00;100647.75;5041267;28;20366;-78
2022/10/15 06:28:21;;;;;;;45.58;33.83;;;;;;;13.51;100.00;100652.34;5037293;28;20029;-79
2022/10/15 06:30:47;;;;;;;44.90;33.55;;;;;;;13.54;100.00;100654.66;5045227;28;20116;-79
2022/10/15 06:33:14;;;;;;;42.38;33.60;;;;;;;13.58;100.00;100657.78;5044991;28;20033;-79
2022/10/15 06:35:40;;;;;;;40.92;33.53;;;;;;;13.61;100.00;100655.66;5047698;28;20052;-79
2022/10/15 06:38:06;;;;;;;44.72;32.35;;;;;;;13.64;100.00;100653.69;5042394;28;20036;-80
2022/10/15 06:40:31;;;;;;;41.25;31.95;;;;;;;13.67;100.00;100653.38;5044033;28;20043;-80
2022/10/15 06:43:09;;;;;;;44.78;32.00;;;;;;;13.68;100.00;100655.03;5042017;28;20053;-79
2022/10/15 06:45:40;;;;;;;44.72;31.98;;;;;;;13.70;100.00;100668.78;5041791;28;20028;-79
2022/10/15 06:48:06;;;;;;;43.05;31.67;;;;;;;13.73;100.00;100668.44;5043103;28;20036;-79
2022/10/15 06:50:33;;;;;;;45.08;32.88;;;;;;;13.73;100.00;100665.81;5044522;28;20029;-78
2022/10/15 06:52:59;;;;;;;40.92;32.08;;;;;;;13.74;100.00;100672.69;5024005;28;20029;-79
2022/10/15 06:55:24;;;;;;;45.50;31.33;;;;;;;13.76;100.00;100673.34;5042927;28;20037;-80
2022/10/15 06:57:50;;;;;;;39.60;32.67;;;;;;;13.80;100.00;100677.28;5039843;28;20377;-79
2022/10/15 07:00:16;;;;;;;43.70;32.42;;;;;;;13.82;100.00;100677.94;5037708;28;20178;-79
2022/10/15 07:02:42;;;;;;;40.63;32.50;;;;;;;13.81;100.00;100676.31;5047599;28;20028;-78
2022/10/15 07:05:08;;;;;;;42.17;33.85;;;;;;;13.76;100.00;100679.41;5047753;28;20029;-80
2022/10/15 07:07:34;;;;;;;45.28;34.60;;;;;;;13.71;100.00;100679.06;5048307;28;20035;-79
2022/10/15 07:09:59;;;;;;;42.92;33.33;;;;;;;13.70;100.00;100685.31;5027601;28;20033;-80
2022/10/15 07:12:24;;;;;;;43.13;33.05;;;;;;;13.71;100.00;100694.78;5042893;28;20029;-79
2022/10/15 07:14:51;;;;;;;42.42;32.22;;;;;;;13.71;100.00;100691.34;5046228;28;20029;-85
2022/10/15 07:17:16;;;;;;;44.10;31.85;;;;;;;13.73;100.00;100687.56;5043857;28;20032;-84
2022/10/15 07:19:42;;;;;;;37.88;31.70;;;;;;;13.78;100.00;100685.31;5047311;28;20171;-84
2022/10/15 07:22:08;;;;;;;44.80;33.20;;;;;;;13.81;100.00;100692.03;5026555;28;20031;-85
2022/10/15 07:24:34;;;;;;;43.17;33.78;;;;;;;13.82;100.00;100685.81;5028822;28;20029;-85
2022/10/15 07:26:59;;;;;;;44.03;31.60;;;;;;;13.87;100.00;100688.75;5044356;28;20132;-85
2022/10/15 07:29:24;;;;;;;45.10;34.17;;;;;;;13.90;100.00;100693.69;5043022;28;20036;-84
2022/10/15 07:31:50;;;;;;;46.75;33.90;;;;;;;13.94;100.00;100687.16;5043978;28;20036;-84
2022/10/15 07:34:15;;;;;;;40.25;32.60;;;;;;;13.95;100.00;100692.22;5044724;28;20060;-85
2022/10/15 07:36:41;;;;;;;46.30;33.30;;;;;;;13.94;100.00;100693.22;5042988;28;20397;-84
2022/10/15 07:39:08;;;;;;;48.03;32.85;;;;;;;14.01;100.00;100696.00;5047257;28;20111;-85
2022/10/15 07:41:33;;;;;;;42.35;33.42;;;;;;;14.06;100.00;100693.72;5047233;28;20033;-83
2022/10/15 07:43:59;;;;;;;42.17;32.83;;;;;;;14.13;100.00;100702.59;5027455;28;20056;-84
2022/10/15 07:46:24;;;;;;;51.33;36.05;;;;;;;14.19;100.00;100709.78;5046066;28;20032;-84
2022/10/15 07:48:50;;;;;;;46.08;35.22;;;;;;;14.22;100.00;100711.25;5030157;28;20064;-84
2022/10/15 07:51:15;;;;;;;45.42;33.20;;;;;;;14.20;100.00;100710.59;5028560;28;20039;-85
2022/10/15 07:53:42;;;;;;;46.83;32.35;;;;;;;14.20;100.00;100702.72;5047010;28;20113;-85
2022/10/15 07:56:11;;;;;;;44.28;32.33;;;;;;;14.32;100.00;100705.84;5046091;28;20035;-84
2022/10/15 07:58:37;;;;;;;39.70;31.98;;;;;;;14.42;100.00;100711.78;5071830;28;20125;-84
2022/10/15 08:01:05;;;;;;;38.28;30.80;;;;;;;14.54;100.00;100710.50;5056101;28;20446;-84
2022/10/15 08:03:30;;;;;;;41.42;31.55;;;;;;;14.72;100.00;100718.16;5047071;28;20082;-84
2022/10/15 08:05:59;;;;;;;38.40;29.63;;;;;;;14.88;100.00;100718.97;5029937;28;20037;-85
2022/10/15 08:08:24;;;;;;;35.60;29.38;;;;;;;15.02;99.75;100719.28;5045402;28;20155;-84
2022/10/15 08:10:50;;;;;;;38.25;29.58;;;;;;;15.06;98.87;100717.97;5028258;28;20122;-85
2022/10/15 08:13:16;;;;;;;35.10;28.38;;;;;;;15.10;98.56;100720.09;5046456;28;20040;-84
2022/10/15 08:15:41;;;;;;;40.20;30.77;;;;;;;15.24;97.94;100715.94;5028536;28;20060;-85
2022/10/15 08:18:08;;;;;;;40.80;30.17;;;;;;;15.36;97.31;100725.09;5044363;28;20048;-84
2022/10/15 08:20:36;;;;;;;38.10;30.13;;;;;;;15.43;97.07;100722.63;5046890;28;20033;-85
2022/10/15 08:23:01;;;;;;;37.25;28.73;;;;;;;15.52;95.64;100721.59;5027815;28;20507;-85
2022/10/15 08:25:27;;;;;;;37.53;28.90;;;;;;;15.76;95.11;100723.31;5046252;28;20032;-84
2022/10/15 08:27:53;;;;;;;38.20;28.42;;;;;;;15.84;93.92;100724.09;5044234;28;20296;-83
2022/10/15 08:30:19;;;;;;;35.28;27.83;;;;;;;15.86;94.08;100726.56;5046542;28;20075;-84
2022/10/15 08:32:45;;;;;;;42.05;28.42;;;;;;;15.89;93.98;100726.22;5046547;28;20111;-85
2022/10/15 08:35:10;;;;;;;37.20;29.80;;;;;;;15.86;93.89;100726.56;5047328;28;20078;-85
2022/10/15 08:37:36;;;;;;;32.00;26.95;;;;;;;15.77;94.19;100717.06;5045742;28;20037;-86
2022/10/15 08:40:03;;;;;;;34.08;28.33;;;;;;;15.81;94.79;100721.81;5025694;28;20403;-85
2022/10/15 08:42:38;;;;;;;34.45;27.40;;;;;;;15.92;93.73;100733.75;5042660;28;20053;-84
2022/10/15 08:45:11;;;;;;;30.42;26.10;;;;;;;15.96;93.60;100726.34;5009546;28;20503;-84
2022/10/15 08:47:42;;;;;;;29.67;26.10;;;;;;;16.02;93.51;100726.47;5037907;28;20441;-85
2022/10/15 08:50:20;;;;;;;29.60;25.33;;;;;;;15.98;92.21;100727.00;5045964;28;20136;-85
2022/10/15 08:52:48;;;;;;;29.33;25.00;;;;;;;16.04;92.28;100727.13;5046112;28;20112;-84
2022/10/15 08:55:20;;;;;;;34.03;27.52;;;;;;;16.08;92.20;100723.13;5028752;28;20395;-85
2022/10/15 08:57:56;;;;;;;31.85;26.65;;;;;;;16.14;91.49;100737.38;5043896;28;20033;-85
2022/10/15 09:00:27;;;;;;;40.85;27.60;;;;;;;16.15;92.36;100731.94;5039301;28;20037;-84
2022/10/15 09:03:09;;;;;;;33.17;27.58;;;;;;;16.18;91.77;100730.78;5041867;28;20044;-85
2022/10/15 09:05:52;;;;;;;34.20;27.88;;;;;;;16.16;91.91;100736.22;5044577;28;20037;-85
2022/10/15 09:08:38;;;;;;;33.90;27.45;;;;;;;16.20;92.00;100744.56;5045931;28;20065;-84
2022/10/15 09:11:17;;;;;;;33.15;27.27;;;;;;;16.29;91.90;100738.28;5044841;28;20041;-85
2022/10/15 09:13:44;;;;;;;38.35;27.98;;;;;;;16.36;92.49;100746.28;5039899;28;20037;-85
2022/10/15 09:16:18;;;;;;;33.13;27.08;;;;;;;16.43;91.57;100747.22;5046057;28;20417;-86
2022/10/15 09:18:48;;;;;;;36.22;29.88;;;;;;;16.49;92.07;100749.97;5044800;28;20037;-85
2022/10/15 09:21:14;;;;;;;35.53;29.05;;;;;;;16.61;91.17;100755.63;5038830;28;20044;-84
2022/10/15 09:23:42;;;;;;;30.40;25.85;;;;;;;16.67;91.31;100754.13;5045348;28;20036;-85
2022/10/15 09:26:10;;;;;;;33.08;28.17;;;;;;;16.66;90.62;100753.31;5027973;28;20037;-85
2022/10/15 09:29:10;;;;;;;33.25;27.45;;;;;;;16.60;90.10;100751.34;5045877;28;20033;-85
2022/10/15 09:31:49;;;;;;;35.05;27.08;;;;;;;16.55;90.97;100751.88;5001529;28;20056;-85
2022/10/15 09:34:31;;;;;;;31.60;26.73;;;;;;;16.55;90.38;100756.31;5044418;28;20472;-85
2022/10/15 09:37:19;;;;;;;33.42;26.65;;;;;;;16.54;91.77;100762.59;5045696;28;20049;-84
2022/10/15 09:40:06;;;;;;;33.58;28.65;;;;;;;16.52;91.57;100765.41;5015315;28;20037;-85
2022/10/15 09:42:40;;;;;;;31.50;26.73;;;;;;;16.57;90.72;100762.22;5027943;28;20424;-84
2022/10/15 09:45:11;;;;;;;34.45;28.17;;;;;;;16.61;91.26;100758.25;5032049;28;20028;-85
2022/10/15 09:47:40;;;;;;;31.73;26.48;;;;;;;16.61;91.26;100755.63;5050110;28;20465;-84
2022/10/15 09:50:09;;;;;;;33.88;26.88;;;;;;;16.59;91.46;100765.50;5049763;28;20043;-85
2022/10/15 09:52:47;;;;;;;31.63;25.65;;;;;;;16.66;90.55;100774.34;5031905;28;20517;-85
2022/10/15 09:55:38;;;;;;;29.00;25.90;;;;;;;16.68;90.21;100771.53;5052890;28;20036;-84
2022/10/15 09:58:25;;;;;;;28.00;24.98;;;;;;;16.76;91.04;100774.13;5048487;28;20041;-85
2022/10/15 10:00:57;;;;;;;31.92;26.20;;;;;;;16.86;91.22;100772.88;5038494;28;20467;-84
2022/10/15 10:03:25;;;;;;;34.47;28.05;;;;;;;16.89;91.39;100772.53;5048427;28;20067;-85
2022/10/15 10:05:58;;;;;;;32.00;27.10;;;;;;;16.91;90.26;100767.09;5051461;28;20430;-85
2022/10/15 10:08:26;;;;;;;32.40;27.80;;;;;;;17.00;91.01;100778.34;5049389;28;20068;-84
2022/10/15 10:11:03;;;;;;;31.85;27.17;;;;;;;16.97;90.74;100786.63;5050485;28;20036;-85
2022/10/15 10:13:58;;;;;;;37.15;28.85;;;;;;;17.13;90.89;100783.81;5048548;28;20484;-84
2022/10/15 10:16:25;;;;;;;32.30;27.13;;;;;;;17.29;90.94;100778.38;5047483;28;20037;-84
2022/10/15 10:19:12;;;;;;;30.05;26.92;;;;;;;17.34;89.34;100775.22;5049164;28;20044;-85
2022/10/15 10:21:41;;;;;;;32.22;28.25;;;;;;;17.38;89.97;100782.56;5047262;28;20028;-84
2022/10/15 10:24:29;;;;;;;31.45;27.05;;;;;;;17.47;89.11;100778.03;5065821;28;20032;-85
2022/10/15 10:26:55;;;;;;;30.08;26.08;;;;;;;17.54;89.08;100777.09;5030870;28;20048;-85
2022/10/15 10:29:22;;;;;;;30.75;25.98;;;;;;;17.63;88.93;100764.66;5048992;28;20064;-85
2022/10/15 10:31:50;;;;;;;29.98;26.77;;;;;;;17.74;88.82;100755.50;5048767;28;20024;-85
2022/10/15 10:34:23;;;;;;;30.02;26.75;;;;;;;17.84;88.48;100763.94;5049381;28;20029;-84
2022/10/15 10:36:51;;;;;;;29.85;26.63;;;;;;;17.92;89.48;100773.56;5027328;28;20036;-85
2022/10/15 10:39:28;;;;;;;29.98;24.95;;;;;;;17.91;89.07;100767.47;5048438;28;20047;-85
2022/10/15 10:42:05;;;;;;;39.22;29.05;;;;;;;17.92;88.56;100755.13;5048812;28;20028;-85
2022/10/15 10:44:32;;;;;;;30.88;25.52;;;;;;;17.82;89.07;100748.31;5030597;28;20435;-84
2022/10/15 10:47:17;;;;;;;32.25;26.63;;;;;;;17.84;86.19;100756.03;5043502;28;20459;-86
2022/10/15 10:49:48;;;;;;;29.90;24.85;;;;;;;17.96;86.80;100756.38;5037557;28;20100;-85
2022/10/15 10:52:28;;;;;;;32.50;25.83;;;;;;;18.06;86.56;100755.06;5030455;28;20331;-84
2022/10/15 10:55:06;;;;;;;28.95;25.52;;;;;;;18.19;87.65;100760.50;5048057;28;20129;-84
2022/10/15 10:57:49;;;;;;;34.78;28.20;;;;;;;18.18;87.81;100748.31;5048148;28;20039;-84
2022/10/15 11:00:20;;;;;;;36.80;28.00;;;;;;;18.19;88.74;100752.56;5049241;28;20538;-84
2022/10/15 11:02:49;;;;;;;35.13;28.75;;;;;;;18.27;88.91;100764.00;5027486;28;20032;-85
2022/10/15 11:05:21;;;;;;;29.50;26.30;;;;;;;18.34;88.42;100767.53;5048029;28;20071;-85
2022/10/15 11:08:07;;;;;;;30.48;26.25;;;;;;;18.43;88.12;100764.56;5045611;28;20036;-85
2022/10/15 11:11:18;;;;;;;35.92;27.83;;;;;;;18.51;87.66;100763.63;5048220;28;20036;-85
2022/10/15 11:13:46;;;;;;;30.80;26.52;;;;;;;18.58;87.95;100756.59;5039541;28;20349;-85
2022/10/15 11:16:46;;;;;;;33.88;28.00;;;;;;;18.54;87.30;100756.16;5030276;28;20037;-85